createdAt,value
2023-01-07T00:01:09.432Z,1.70
2023-01-07T00:03:37.174Z,2.43
2023-01-07T00:06:12.283Z,2.10
2023-01-07T00:08:41.139Z,2.33
2023-01-07T00:11:10.589Z,2.60
2023-01-07T00:13:38.013Z,3.00
2023-01-07T00:16:12.424Z,2.40
2023-01-07T00:18:39.823Z,2.07
2023-01-07T00:21:09.256Z,2.10
2023-01-07T00:23:37.045Z,3.03
2023-01-07T00:26:12.326Z,2.50
2023-01-07T00:28:41.141Z,2.20
2023-01-07T00:31:15.309Z,2.37
2023-01-07T00:33:54.449Z,2.70
2023-01-07T00:36:22.736Z,3.10
2023-01-07T00:38:58.193Z,3.30
2023-01-07T00:41:25.096Z,2.80
2023-01-07T00:43:52.279Z,2.80
2023-01-07T00:46:22.444Z,2.57
2023-01-07T00:48:49.558Z,2.40
2023-01-07T00:51:17.753Z,2.83
2023-01-07T00:53:44.437Z,2.40
2023-01-07T00:56:12.384Z,2.40
2023-01-07T00:58:38.989Z,2.70
2023-01-07T01:01:05.758Z,2.47
2023-01-07T01:03:33.297Z,2.83
2023-01-07T01:06:05.308Z,2.40
2023-01-07T01:08:31.988Z,2.37
2023-01-07T01:11:04.182Z,2.80
2023-01-07T01:13:31.426Z,2.70
2023-01-07T01:15:58.102Z,2.80
2023-01-07T01:18:24.925Z,3.10
2023-01-07T01:20:51.630Z,3.20
2023-01-07T01:23:18.479Z,2.67
2023-01-07T01:25:45.231Z,3.20
2023-01-07T01:28:11.835Z,2.90
2023-01-07T01:30:38.482Z,2.83
2023-01-07T01:33:05.083Z,2.67
2023-01-07T01:35:31.669Z,2.90
2023-01-07T01:38:00.767Z,2.30
2023-01-07T01:40:30.640Z,2.20
2023-01-07T01:42:57.283Z,2.90
2023-01-07T01:45:25.845Z,2.50
2023-01-07T01:48:04.333Z,2.90
2023-01-07T01:50:41.442Z,2.27
2023-01-07T01:53:14.048Z,2.90
2023-01-07T01:55:48.988Z,2.40
2023-01-07T01:58:21.736Z,2.90
2023-01-07T02:00:49.027Z,3.73
2023-01-07T02:03:20.125Z,2.73
2023-01-07T02:05:47.579Z,2.50
2023-01-07T02:08:21.752Z,2.10
2023-01-07T02:10:54.553Z,2.57
2023-01-07T02:13:55.679Z,2.37
2023-01-07T02:16:35.976Z,2.30
2023-01-07T02:19:20.725Z,2.27
2023-01-07T02:22:08.811Z,2.60
2023-01-07T02:25:00.343Z,2.97
2023-01-07T02:27:35.769Z,2.10
2023-01-07T02:30:19.886Z,2.70
2023-01-07T02:33:07.948Z,2.80
2023-01-07T02:35:40.425Z,2.60
2023-01-07T02:38:35.167Z,2.70
2023-01-07T02:41:19.668Z,2.90
2023-01-07T02:44:01.611Z,2.57
2023-01-07T02:46:42.115Z,2.40
2023-01-07T02:49:10.415Z,2.90
2023-01-07T02:51:39.475Z,2.33
2023-01-07T02:54:09.307Z,2.37
2023-01-07T02:56:53.323Z,2.70
2023-01-07T02:59:25.954Z,2.60
2023-01-07T03:02:14.177Z,2.33
2023-01-07T03:05:08.478Z,2.43
2023-01-07T03:08:08.921Z,2.90
2023-01-07T03:10:49.909Z,2.47
2023-01-07T03:13:17.749Z,2.57
2023-01-07T03:16:23.009Z,2.60
2023-01-07T03:19:00.369Z,1.97
2023-01-07T03:21:29.770Z,2.00
2023-01-07T03:23:58.485Z,2.10
2023-01-07T03:26:32.136Z,2.30
2023-01-07T03:29:04.421Z,1.77
2023-01-07T03:31:31.651Z,1.90
2023-01-07T03:34:13.421Z,1.70
2023-01-07T03:36:44.557Z,1.60
2023-01-07T03:39:13.586Z,2.13
2023-01-07T03:41:59.159Z,2.00
2023-01-07T03:44:25.957Z,1.50
2023-01-07T03:46:53.151Z,1.90
2023-01-07T03:49:20.182Z,1.63
2023-01-07T03:51:49.257Z,1.60
2023-01-07T03:54:15.887Z,1.73
2023-01-07T03:56:42.515Z,2.10
2023-01-07T03:59:09.340Z,1.47
2023-01-07T04:01:36.095Z,2.10
2023-01-07T04:04:03.570Z,2.40
2023-01-07T04:06:30.642Z,2.00
2023-01-07T04:08:57.219Z,1.70
2023-01-07T04:11:23.816Z,2.20
2023-01-07T04:13:50.453Z,1.73
2023-01-07T04:16:17.185Z,1.97
2023-01-07T04:18:43.842Z,2.17
2023-01-07T04:21:10.438Z,1.30
2023-01-07T04:23:37.028Z,1.30
2023-01-07T04:26:03.792Z,1.87
2023-01-07T04:28:30.376Z,1.90
2023-01-07T04:30:59.577Z,1.17
2023-01-07T04:33:26.630Z,1.70
2023-01-07T04:35:53.465Z,1.70
2023-01-07T04:38:20.099Z,1.77
2023-01-07T04:40:46.691Z,1.30
2023-01-07T04:43:13.284Z,1.53
2023-01-07T04:45:40.985Z,1.47
2023-01-07T04:48:07.750Z,1.60
2023-01-07T04:50:34.421Z,1.13
2023-01-07T04:53:01.061Z,1.10
2023-01-07T04:55:27.645Z,0.90
2023-01-07T04:57:54.290Z,1.13
2023-01-07T05:00:20.970Z,1.40
2023-01-07T05:02:47.570Z,1.10
2023-01-07T05:05:15.343Z,1.00
2023-01-07T05:07:41.929Z,1.10
2023-01-07T05:10:08.929Z,1.10
2023-01-07T05:12:36.483Z,1.27
2023-01-07T05:15:05.143Z,1.20
2023-01-07T05:17:31.827Z,1.00
2023-01-07T05:19:58.437Z,0.90
2023-01-07T05:22:25.189Z,1.10
2023-01-07T05:24:51.787Z,1.00
2023-01-07T05:27:18.526Z,1.00
2023-01-07T05:29:45.105Z,1.00
2023-01-07T05:32:11.680Z,1.00
2023-01-07T05:34:38.711Z,0.90
2023-01-07T05:37:05.348Z,0.70
2023-01-07T05:39:31.955Z,1.20
2023-01-07T05:41:59.238Z,1.00
2023-01-07T05:44:25.915Z,1.20
2023-01-07T05:46:52.524Z,1.00
2023-01-07T05:49:19.306Z,0.87
2023-01-07T05:51:45.905Z,1.07
2023-01-07T05:54:12.523Z,1.33
2023-01-07T05:56:39.111Z,1.17
2023-01-07T05:59:05.768Z,1.10
2023-01-07T06:01:32.545Z,1.20
2023-01-07T06:03:59.172Z,1.20
2023-01-07T06:06:25.824Z,1.33
2023-01-07T06:08:52.416Z,0.90
2023-01-07T06:11:19.010Z,0.90
2023-01-07T06:13:45.594Z,1.00
2023-01-07T06:16:13.549Z,0.80
2023-01-07T06:18:40.329Z,1.57
2023-01-07T06:21:07.265Z,1.33
2023-01-07T06:23:33.915Z,1.83
2023-01-07T06:26:00.638Z,1.13
2023-01-07T06:28:27.267Z,0.93
2023-01-07T06:30:53.887Z,1.10
2023-01-07T06:33:20.692Z,0.80
2023-01-07T06:35:47.543Z,1.27
2023-01-07T06:38:14.266Z,1.07
2023-01-07T06:40:41.005Z,1.33
2023-01-07T06:43:07.605Z,2.00
2023-01-07T06:45:34.189Z,1.43
2023-01-07T06:48:00.748Z,1.70
2023-01-07T06:50:27.394Z,1.37
2023-01-07T06:52:54.102Z,1.50
2023-01-07T06:55:20.764Z,1.73
2023-01-07T06:57:47.347Z,1.47
2023-01-07T07:00:14.453Z,1.57
2023-01-07T07:02:41.177Z,1.40
2023-01-07T07:05:08.045Z,1.47
2023-01-07T07:07:34.794Z,1.30
2023-01-07T07:10:07.174Z,1.60
2023-01-07T07:12:38.093Z,1.70
2023-01-07T07:15:06.066Z,1.40
2023-01-07T07:17:32.653Z,1.70
2023-01-07T07:22:27.173Z,1.53
2023-01-07T07:24:53.799Z,1.47
2023-01-07T07:27:20.404Z,1.43
2023-01-07T07:29:47.023Z,1.50
2023-01-07T07:32:13.635Z,1.73
2023-01-07T07:34:40.215Z,1.30
2023-01-07T07:37:07.109Z,2.17
2023-01-07T07:39:33.752Z,1.40
2023-01-07T07:42:03.711Z,1.60
2023-01-07T07:44:30.423Z,1.50
2023-01-07T07:46:57.102Z,1.60
2023-01-07T07:49:23.704Z,1.60
2023-01-07T07:51:50.305Z,2.00
2023-01-07T07:54:16.973Z,1.60
2023-01-07T07:56:43.546Z,2.17
2023-01-07T07:59:10.421Z,1.40
2023-01-07T08:01:37.682Z,1.80
2023-01-07T08:04:04.438Z,2.10
2023-01-07T08:06:31.272Z,2.07
2023-01-07T08:08:57.882Z,1.70
2023-01-07T08:11:24.531Z,2.00
2023-01-07T08:13:51.114Z,1.70
2023-01-07T08:16:17.783Z,2.10
2023-01-07T08:18:44.463Z,1.50
2023-01-07T08:21:11.179Z,1.50
2023-01-07T08:23:37.852Z,2.20
2023-01-07T08:26:04.692Z,2.23
2023-01-07T08:28:32.255Z,2.27
2023-01-07T08:31:03.911Z,2.30
2023-01-07T08:33:31.573Z,1.50
2023-01-07T08:35:58.169Z,2.03
2023-01-07T08:38:25.386Z,2.07
2023-01-07T08:40:51.996Z,2.17
2023-01-07T08:43:18.683Z,2.00
2023-01-07T08:45:49.076Z,2.37
2023-01-07T08:48:15.958Z,2.57
2023-01-07T08:50:42.583Z,2.40
2023-01-07T08:53:09.237Z,2.60
2023-01-07T08:55:35.941Z,1.90
2023-01-07T08:58:02.523Z,2.17
2023-01-07T09:00:29.248Z,2.10
2023-01-07T09:02:55.980Z,2.33
2023-01-07T09:05:22.753Z,1.77
2023-01-07T09:07:53.189Z,2.03
2023-01-07T09:10:20.442Z,1.93
2023-01-07T09:12:47.173Z,2.00
2023-01-07T09:15:13.823Z,2.00
2023-01-07T09:17:40.687Z,2.10
2023-01-07T09:20:08.136Z,1.67
2023-01-07T09:22:36.837Z,1.90
2023-01-07T09:25:05.056Z,1.90
2023-01-07T09:27:31.709Z,1.70
2023-01-07T09:29:58.654Z,1.50
2023-01-07T09:32:26.462Z,2.00
2023-01-07T09:34:53.124Z,1.17
2023-01-07T09:37:20.280Z,1.40
2023-01-07T09:39:46.966Z,1.33
2023-01-07T09:42:24.787Z,1.27
2023-01-07T09:45:03.840Z,0.90
2023-01-07T09:47:34.784Z,1.20
2023-01-07T09:50:09.582Z,1.30
2023-01-07T09:52:42.070Z,1.23
2023-01-07T09:55:20.628Z,1.20
2023-01-07T09:57:47.334Z,0.90
2023-01-07T10:00:17.229Z,0.80
2023-01-07T10:03:08.261Z,1.00
2023-01-07T10:06:01.585Z,1.40
2023-01-07T10:08:44.573Z,1.00
2023-01-07T10:11:34.782Z,1.03
2023-01-07T10:14:17.714Z,1.23
2023-01-07T10:17:08.994Z,1.00
2023-01-07T10:20:01.813Z,1.00
2023-01-07T10:22:36.700Z,1.10
2023-01-07T10:25:29.445Z,1.20
2023-01-07T10:28:03.052Z,0.70
2023-01-07T10:30:34.711Z,0.90
2023-01-07T10:33:28.432Z,1.10
2023-01-07T10:36:20.663Z,1.03
2023-01-07T10:38:58.363Z,1.07
2023-01-07T10:41:39.662Z,1.00
2023-01-07T10:44:15.181Z,1.10
2023-01-07T10:47:06.333Z,0.90
2023-01-07T10:50:08.654Z,0.80
2023-01-07T10:52:52.024Z,1.00
2023-01-07T10:55:42.937Z,0.90
2023-01-07T10:58:11.497Z,0.93
2023-01-07T11:00:39.877Z,1.20
2023-01-07T11:03:21.013Z,0.80
2023-01-07T11:05:51.428Z,1.20
2023-01-07T11:08:29.089Z,0.77
2023-01-07T11:10:57.459Z,0.83
2023-01-07T11:13:36.012Z,0.77
2023-01-07T11:16:16.950Z,0.80
2023-01-07T11:18:53.562Z,0.90
2023-01-07T11:21:42.793Z,0.90
2023-01-07T11:24:33.755Z,0.87
2023-01-07T11:27:17.017Z,0.97
2023-01-07T11:29:46.379Z,1.00
2023-01-07T11:32:27.170Z,0.90
2023-01-07T11:35:17.784Z,0.93
2023-01-07T11:37:47.121Z,0.80
2023-01-07T11:40:13.690Z,0.90
2023-01-07T11:42:52.386Z,0.90
2023-01-07T11:45:32.807Z,0.80
2023-01-07T11:48:18.623Z,0.80
2023-01-07T11:50:54.100Z,1.10
2023-01-07T11:53:33.664Z,0.90
2023-01-07T11:56:02.118Z,1.70
2023-01-07T11:58:33.326Z,0.90
2023-01-07T12:01:09.668Z,0.90
2023-01-07T12:03:37.822Z,0.87
2023-01-07T12:06:28.611Z,0.90
2023-01-07T12:09:13.592Z,1.10
2023-01-07T12:11:42.944Z,1.17
2023-01-07T12:14:32.934Z,0.83
2023-01-07T12:17:16.925Z,0.97
2023-01-07T12:20:01.940Z,1.80
2023-01-07T12:22:48.042Z,1.63
2023-01-07T12:25:56.104Z,2.23
2023-01-07T12:28:53.179Z,2.60
2023-01-07T12:31:43.418Z,3.70
2023-01-07T12:34:12.889Z,3.10
2023-01-07T12:36:45.391Z,11.63
2023-01-07T12:39:35.076Z,12.40
2023-01-07T12:42:20.062Z,6.60
2023-01-07T12:44:51.024Z,14.60
2023-01-07T12:47:32.042Z,11.10
2023-01-07T12:50:29.439Z,2.80
2023-01-07T12:53:10.994Z,5.07
2023-01-07T12:55:54.546Z,9.87
2023-01-07T12:58:35.559Z,6.47
2023-01-07T13:01:22.923Z,18.37
2023-01-07T13:03:57.708Z,12.73
2023-01-07T13:06:36.140Z,13.23
2023-01-07T13:09:26.349Z,6.60
2023-01-07T13:12:42.140Z,18.90
2023-01-07T13:15:14.769Z,28.67
2023-01-07T13:17:41.566Z,24.10
2023-01-07T13:20:17.491Z,12.97
2023-01-07T13:22:59.344Z,5.27
2023-01-07T13:25:53.239Z,3.40
2023-01-07T13:28:29.748Z,13.43
2023-01-07T13:31:15.232Z,4.10
2023-01-07T13:34:03.551Z,22.93
2023-01-07T13:36:56.028Z,19.87
2023-01-07T13:39:38.677Z,19.30
2023-01-07T13:42:34.168Z,3.40
2023-01-07T13:45:13.283Z,1.87
2023-01-07T13:47:45.843Z,1.40
2023-01-07T13:50:22.277Z,1.87
2023-01-07T13:53:01.049Z,2.00
2023-01-07T13:55:34.469Z,1.70
2023-01-07T13:58:02.793Z,1.60
2023-01-07T14:00:40.614Z,1.60
2023-01-07T14:03:27.176Z,1.50
2023-01-07T14:06:24.556Z,1.70
2023-01-07T14:09:04.700Z,1.87
2023-01-07T14:11:32.461Z,6.53
2023-01-07T14:14:20.953Z,4.37
2023-01-07T14:16:53.514Z,4.87
2023-01-07T14:19:50.222Z,2.20
2023-01-07T14:22:20.097Z,3.30
2023-01-07T14:25:05.184Z,2.27
2023-01-07T14:28:01.005Z,1.80
2023-01-07T14:30:45.900Z,1.90
2023-01-07T14:33:37.125Z,1.93
2023-01-07T14:36:06.700Z,2.13
2023-01-07T14:38:33.262Z,2.20
2023-01-07T14:41:09.567Z,2.20
2023-01-07T14:43:48.484Z,2.67
2023-01-07T14:46:24.377Z,2.53
2023-01-07T14:49:03.264Z,2.27
2023-01-07T14:51:58.421Z,1.90
2023-01-07T14:54:29.218Z,1.90
2023-01-07T14:57:00.988Z,2.03
2023-01-07T14:59:58.365Z,2.33
2023-01-07T15:03:05.601Z,2.00
2023-01-07T15:05:44.393Z,2.60
2023-01-07T15:08:35.697Z,2.37
2023-01-07T15:11:23.405Z,2.67
2023-01-07T15:14:19.803Z,2.43
2023-01-07T15:16:48.783Z,2.60
2023-01-07T15:19:15.471Z,2.40
2023-01-07T15:22:00.934Z,2.40
2023-01-07T15:24:57.749Z,2.40
2023-01-07T15:27:33.548Z,2.43
2023-01-07T15:30:32.515Z,2.73
2023-01-07T15:33:37.058Z,2.30
2023-01-07T15:36:07.874Z,2.13
2023-01-07T15:38:49.524Z,2.30
2023-01-07T15:41:36.133Z,2.90
2023-01-07T15:44:06.510Z,2.50
2023-01-07T15:46:33.775Z,2.20
2023-01-07T15:49:16.567Z,2.13
2023-01-07T15:51:54.345Z,2.60
2023-01-07T15:54:30.455Z,2.00
2023-01-07T15:57:01.635Z,1.83
2023-01-07T15:59:31.227Z,2.17
2023-01-07T16:02:05.887Z,2.33
2023-01-07T16:04:36.988Z,2.20
2023-01-07T16:07:03.828Z,5.20
2023-01-07T16:09:32.256Z,3.10
2023-01-07T16:12:01.707Z,2.93
2023-01-07T16:14:37.010Z,3.80
2023-01-07T16:17:14.484Z,4.40
2023-01-07T16:19:41.804Z,2.97
2023-01-07T16:22:19.531Z,2.90
2023-01-07T16:24:51.948Z,2.70
2023-01-07T16:27:30.642Z,2.60
2023-01-07T16:29:58.837Z,2.40
2023-01-07T16:32:26.552Z,3.70
2023-01-07T16:34:57.288Z,4.57
2023-01-07T16:37:24.420Z,6.57
2023-01-07T16:39:52.856Z,4.00
2023-01-07T16:42:23.107Z,4.83
2023-01-07T16:44:52.786Z,2.87
2023-01-07T16:47:28.043Z,4.17
2023-01-07T16:50:17.707Z,3.03
2023-01-07T16:52:55.748Z,2.90
2023-01-07T16:55:50.609Z,2.53
2023-01-07T16:58:39.314Z,3.27
2023-01-07T17:01:07.291Z,3.60
2023-01-07T17:03:57.335Z,2.43
2023-01-07T17:06:29.550Z,3.10
2023-01-07T17:08:57.720Z,2.63
2023-01-07T17:11:38.055Z,2.70
2023-01-07T17:14:33.809Z,2.60
2023-01-07T17:17:02.254Z,2.97
2023-01-07T17:19:39.488Z,3.23
2023-01-07T17:22:45.484Z,2.70
2023-01-07T17:25:21.281Z,3.33
2023-01-07T17:27:56.948Z,3.90
2023-01-07T17:30:27.689Z,2.60
2023-01-07T17:32:54.315Z,2.90
2023-01-07T17:35:23.922Z,3.50
2023-01-07T17:37:51.939Z,2.60
2023-01-07T17:40:19.412Z,2.97
2023-01-07T17:43:05.934Z,3.50
2023-01-07T17:45:33.085Z,3.30
2023-01-07T17:48:01.345Z,2.90
2023-01-07T17:50:36.730Z,3.80
2023-01-07T17:53:04.009Z,3.03
2023-01-07T17:55:34.155Z,3.93
2023-01-07T17:58:00.945Z,3.73
2023-01-07T18:00:30.854Z,3.30
2023-01-07T18:02:58.067Z,2.97
2023-01-07T18:05:26.009Z,5.33
2023-01-07T18:07:53.173Z,3.70
2023-01-07T18:10:28.224Z,4.07
2023-01-07T18:12:58.882Z,3.87
2023-01-07T18:15:27.110Z,3.97
2023-01-07T18:17:53.963Z,3.13
2023-01-07T18:20:23.063Z,3.10
2023-01-07T18:22:50.336Z,4.90
2023-01-07T18:25:19.953Z,3.03
2023-01-07T18:27:47.875Z,7.50
2023-01-07T18:30:17.621Z,5.80
2023-01-07T18:32:44.701Z,5.50
2023-01-07T18:35:12.260Z,4.00
2023-01-07T18:37:39.161Z,2.90
2023-01-07T18:40:08.445Z,2.97
2023-01-07T18:42:35.778Z,4.00
2023-01-07T18:45:03.075Z,3.90
2023-01-07T18:47:29.989Z,3.67
2023-01-07T18:49:56.584Z,3.20
2023-01-07T18:52:23.387Z,3.03
2023-01-07T18:54:50.135Z,3.67
2023-01-07T18:57:16.848Z,3.57
2023-01-07T18:59:44.592Z,2.80
2023-01-07T19:02:15.880Z,2.63
2023-01-07T19:04:42.667Z,3.93
2023-01-07T19:07:09.829Z,3.10
2023-01-07T19:09:36.664Z,2.90
2023-01-07T19:12:04.091Z,2.93
2023-01-07T19:14:30.725Z,2.90
2023-01-07T19:16:57.553Z,3.50
2023-01-07T19:19:24.223Z,2.97
2023-01-07T19:21:51.064Z,2.63
2023-01-07T19:24:17.823Z,3.07
2023-01-07T19:26:44.488Z,3.80
2023-01-07T19:29:13.271Z,2.97
2023-01-07T19:31:42.918Z,3.07
2023-01-07T19:34:09.657Z,2.87
2023-01-07T19:36:36.260Z,3.20
2023-01-07T19:39:03.441Z,2.93
2023-01-07T19:41:30.351Z,2.97
2023-01-07T19:44:00.777Z,3.93
2023-01-07T19:46:28.170Z,3.13
2023-01-07T19:48:54.837Z,3.13
2023-01-07T19:51:21.414Z,3.73
2023-01-07T19:53:50.084Z,3.70
2023-01-07T19:56:16.748Z,2.60
2023-01-07T19:58:43.421Z,3.13
2023-01-07T20:01:17.078Z,3.50
2023-01-07T20:03:44.329Z,3.27
2023-01-07T20:06:15.804Z,4.60
2023-01-07T20:08:42.804Z,4.30
2023-01-07T20:11:10.340Z,3.40
2023-01-07T20:13:38.402Z,3.73
2023-01-07T20:16:21.781Z,4.83
2023-01-07T20:18:51.704Z,3.60
2023-01-07T20:21:23.638Z,3.27
2023-01-07T20:23:50.332Z,3.53
2023-01-07T20:26:26.011Z,3.93
2023-01-07T20:28:53.068Z,3.03
2023-01-07T20:31:21.569Z,4.40
2023-01-07T20:33:50.313Z,3.93
2023-01-07T20:36:19.496Z,3.67
2023-01-07T20:38:47.055Z,4.30
2023-01-07T20:41:19.835Z,3.13
2023-01-07T20:43:52.092Z,3.60
2023-01-07T20:46:20.260Z,3.80
2023-01-07T20:48:47.524Z,3.43
2023-01-07T20:51:14.999Z,3.60
2023-01-07T20:53:42.332Z,3.97
2023-01-07T20:56:09.540Z,3.10
2023-01-07T20:58:37.723Z,3.40
2023-01-07T21:01:07.187Z,3.50
2023-01-07T21:03:34.986Z,3.27
2023-01-07T21:06:01.658Z,3.70
2023-01-07T21:08:28.414Z,4.27
2023-01-07T21:10:55.201Z,2.70
2023-01-07T21:13:22.861Z,3.40
2023-01-07T21:15:50.194Z,3.30
2023-01-07T21:18:16.992Z,3.90
2023-01-07T21:20:44.256Z,3.60
2023-01-07T21:23:11.759Z,3.57
2023-01-07T21:25:38.550Z,3.37
2023-01-07T21:28:06.553Z,3.27
2023-01-07T21:30:33.681Z,3.17
2023-01-07T21:33:00.350Z,2.90
2023-01-07T21:35:27.204Z,3.13
2023-01-07T21:37:54.923Z,3.50
2023-01-07T21:40:22.479Z,3.73
2023-01-07T21:42:49.353Z,3.17
2023-01-07T21:45:16.101Z,3.03
2023-01-07T21:47:43.215Z,3.10
2023-01-07T21:50:10.304Z,3.13
2023-01-07T21:52:37.392Z,2.90
2023-01-07T21:55:04.627Z,2.63
2023-01-07T21:57:31.304Z,2.90
2023-01-07T21:59:57.899Z,2.93
2023-01-07T22:02:24.554Z,2.87
2023-01-07T22:04:51.265Z,2.50
2023-01-07T22:07:19.325Z,2.67
2023-01-07T22:09:46.074Z,2.67
2023-01-07T22:12:14.136Z,2.73
2023-01-07T22:14:41.057Z,3.10
2023-01-07T22:17:09.434Z,2.50
2023-01-07T22:19:36.179Z,2.97
2023-01-07T22:22:03.037Z,2.63
2023-01-07T22:24:29.782Z,3.07
2023-01-07T22:26:57.322Z,2.80
2023-01-07T22:29:24.174Z,2.70
2023-01-07T22:31:52.737Z,3.23
2023-01-07T22:34:20.439Z,2.97
2023-01-07T22:37:05.641Z,2.63
2023-01-07T22:39:36.891Z,2.87
2023-01-07T22:42:13.997Z,3.07
2023-01-07T22:44:44.830Z,3.40
2023-01-07T22:47:15.749Z,3.03
2023-01-07T22:49:42.573Z,2.90
2023-01-07T22:52:11.328Z,2.60
2023-01-07T22:54:38.658Z,2.67
2023-01-07T22:57:07.914Z,2.53
2023-01-07T22:59:35.684Z,2.90
2023-01-07T23:02:02.585Z,3.07
2023-01-07T23:04:29.638Z,3.60
2023-01-07T23:06:56.345Z,2.77
2023-01-07T23:09:24.185Z,3.40
2023-01-07T23:11:52.243Z,2.93
2023-01-07T23:14:21.584Z,2.93
2023-01-07T23:16:50.275Z,4.10
2023-01-07T23:19:18.346Z,2.83
2023-01-07T23:21:47.746Z,2.40
2023-01-07T23:24:14.685Z,2.60
2023-01-07T23:26:42.140Z,3.50
2023-01-07T23:29:09.654Z,2.50
2023-01-07T23:31:37.462Z,2.50
2023-01-07T23:34:05.297Z,2.27
2023-01-07T23:36:32.370Z,2.60
2023-01-07T23:38:58.982Z,2.43
2023-01-07T23:41:25.639Z,2.60
2023-01-07T23:43:52.282Z,2.10
2023-01-07T23:46:18.928Z,2.40
2023-01-07T23:48:48.885Z,2.33
2023-01-07T23:51:17.904Z,1.90
2023-01-07T23:53:45.852Z,2.07
2023-01-07T23:56:14.223Z,2.20
2023-01-07T23:58:40.914Z,2.33
